createdAt,value
2022-12-23T00:00:58.207Z,90.68
2022-12-23T00:03:26.969Z,90.90
2022-12-23T00:05:54.811Z,90.96
2022-12-23T00:08:23.471Z,91.07
2022-12-23T00:10:54.107Z,91.54
2022-12-23T00:13:39.540Z,91.55
2022-12-23T00:16:09.530Z,91.67
2022-12-23T00:18:37.690Z,91.89
2022-12-23T00:21:09.202Z,91.73
2022-12-23T00:23:39.203Z,91.41
2022-12-23T00:26:13.797Z,91.77
2022-12-23T00:28:41.478Z,91.64
2022-12-23T00:31:10.256Z,91.53
2022-12-23T00:33:39.671Z,91.49
2022-12-23T00:36:13.264Z,91.76
2022-12-23T00:38:58.812Z,91.69
2022-12-23T00:41:45.515Z,91.55
2022-12-23T00:44:13.468Z,91.49
2022-12-23T00:46:41.275Z,91.42
2022-12-23T00:49:40.951Z,91.41
2022-12-23T00:52:10.511Z,91.65
2022-12-23T00:54:38.328Z,91.53
2022-12-23T00:57:07.900Z,91.81
2022-12-23T00:59:35.613Z,91.59
2022-12-23T01:02:20.941Z,91.39
2022-12-23T01:05:06.286Z,91.34
2022-12-23T01:07:34.028Z,91.31
2022-12-23T01:10:01.675Z,91.12
2022-12-23T01:12:30.753Z,91.54
2022-12-23T01:14:58.487Z,91.09
2022-12-23T01:17:26.217Z,91.22
2022-12-23T01:19:53.891Z,91.00
2022-12-23T01:22:21.569Z,91.05
2022-12-23T01:24:49.302Z,90.90
2022-12-23T01:27:17.069Z,90.78
2022-12-23T01:29:46.705Z,90.77
2022-12-23T01:32:15.236Z,90.73
2022-12-23T01:34:43.106Z,90.74
2022-12-23T01:37:10.767Z,90.70
2022-12-23T01:39:38.463Z,90.75
2022-12-23T01:42:28.406Z,90.86
2022-12-23T01:45:00.475Z,90.72
2022-12-23T01:47:33.994Z,90.80
2022-12-23T01:50:07.258Z,90.86
2022-12-23T01:52:39.818Z,90.57
2022-12-23T01:55:08.544Z,90.51
2022-12-23T01:57:39.831Z,90.53
2022-12-23T02:00:29.441Z,90.54
2022-12-23T02:03:14.709Z,90.56
2022-12-23T02:05:45.968Z,90.56
2022-12-23T02:08:33.192Z,90.53
2022-12-23T02:11:29.606Z,90.47
2022-12-23T02:14:28.585Z,90.61
2022-12-23T02:17:07.066Z,90.55
2022-12-23T02:19:54.380Z,90.77
2022-12-23T02:22:46.428Z,90.48
2022-12-23T02:25:33.451Z,90.47
2022-12-23T02:28:21.207Z,90.43
2022-12-23T02:30:57.676Z,90.62
2022-12-23T02:33:44.840Z,90.49
2022-12-23T02:36:24.479Z,90.47
2022-12-23T02:39:00.517Z,90.51
2022-12-23T02:41:36.059Z,90.55
2022-12-23T02:44:11.585Z,90.48
2022-12-23T02:46:47.157Z,90.37
2022-12-23T02:49:21.904Z,90.31
2022-12-23T02:51:54.701Z,90.37
2022-12-23T02:54:27.925Z,90.31
2022-12-23T02:56:57.652Z,90.59
2022-12-23T02:59:27.895Z,90.72
2022-12-23T03:01:58.330Z,90.88
2022-12-23T03:04:26.191Z,90.75
2022-12-23T03:06:56.143Z,90.71
2022-12-23T03:09:31.992Z,90.72
2022-12-23T03:12:06.077Z,90.91
2022-12-23T03:14:55.507Z,90.83
2022-12-23T03:17:36.995Z,90.88
2022-12-23T03:20:13.301Z,90.62
2022-12-23T03:22:50.964Z,90.61
2022-12-23T03:25:25.287Z,90.66
2022-12-23T03:27:59.857Z,90.96
2022-12-23T03:30:28.823Z,90.77
2022-12-23T03:33:02.717Z,90.93
2022-12-23T03:35:36.023Z,90.95
2022-12-23T03:38:04.670Z,90.71
2022-12-23T03:40:38.121Z,90.85
2022-12-23T03:43:12.356Z,91.10
2022-12-23T03:45:44.283Z,91.23
2022-12-23T03:48:21.075Z,91.49
2022-12-23T03:50:53.788Z,91.51
2022-12-23T03:53:26.885Z,91.78
2022-12-23T03:55:59.887Z,91.72
2022-12-23T03:58:36.347Z,91.88
2022-12-23T04:01:06.911Z,91.89
2022-12-23T04:03:41.292Z,91.83
2022-12-23T04:06:15.533Z,91.73
2022-12-23T04:08:44.992Z,91.55
2022-12-23T04:11:13.605Z,91.45
2022-12-23T04:13:41.643Z,91.51
2022-12-23T04:16:09.598Z,91.51
2022-12-23T04:18:38.775Z,91.71
2022-12-23T04:21:07.130Z,91.26
2022-12-23T04:23:34.776Z,91.20
2022-12-23T04:26:02.469Z,91.23
2022-12-23T04:28:30.193Z,91.03
2022-12-23T04:30:58.104Z,91.11
2022-12-23T04:33:25.793Z,91.25
2022-12-23T04:35:54.798Z,91.15
2022-12-23T04:38:22.528Z,91.07
2022-12-23T04:40:50.183Z,91.22
2022-12-23T04:43:18.005Z,91.01
2022-12-23T04:45:45.743Z,90.95
2022-12-23T04:48:13.460Z,90.89
2022-12-23T04:50:41.457Z,90.82
2022-12-23T04:53:10.765Z,90.76
2022-12-23T04:55:38.510Z,90.65
2022-12-23T04:58:06.218Z,90.43
2022-12-23T05:00:39.174Z,90.61
2022-12-23T05:03:07.506Z,90.62
2022-12-23T05:05:35.473Z,90.13
2022-12-23T05:08:05.132Z,90.17
2022-12-23T05:10:34.224Z,90.16
2022-12-23T05:13:01.965Z,90.26
2022-12-23T05:15:29.694Z,90.09
2022-12-23T05:17:57.446Z,89.99
2022-12-23T05:20:25.130Z,90.13
2022-12-23T05:22:52.808Z,90.21
2022-12-23T05:25:20.516Z,90.50
2022-12-23T05:27:49.697Z,90.68
2022-12-23T05:30:17.494Z,90.45
2022-12-23T05:32:45.176Z,90.32
2022-12-23T05:35:12.878Z,90.08
2022-12-23T05:37:40.518Z,90.28
2022-12-23T05:40:09.547Z,90.07
2022-12-23T05:42:37.399Z,90.11
2022-12-23T05:45:07.559Z,89.89
2022-12-23T05:47:35.519Z,89.76
2022-12-23T05:50:03.428Z,89.87
2022-12-23T05:52:31.227Z,89.72
2022-12-23T05:54:58.903Z,89.79
2022-12-23T05:57:26.697Z,89.86
2022-12-23T05:59:54.365Z,89.96
2022-12-23T06:02:23.579Z,90.09
2022-12-23T06:04:51.433Z,89.99
2022-12-23T06:07:19.107Z,89.78
2022-12-23T06:09:46.824Z,89.78
2022-12-23T06:12:14.514Z,89.67
2022-12-23T06:14:42.247Z,89.80
2022-12-23T06:17:09.918Z,89.85
2022-12-23T06:19:39.020Z,89.77
2022-12-23T06:22:06.942Z,89.76
2022-12-23T06:24:34.620Z,89.66
2022-12-23T06:27:02.347Z,89.45
2022-12-23T06:29:30.260Z,89.47
2022-12-23T06:31:58.049Z,89.66
2022-12-23T06:34:25.859Z,89.31
2022-12-23T06:36:54.911Z,89.19
2022-12-23T06:39:22.592Z,89.24
2022-12-23T06:41:50.516Z,89.20
2022-12-23T06:44:18.282Z,89.04
2022-12-23T06:46:45.970Z,89.19
2022-12-23T06:49:14.177Z,89.24
2022-12-23T06:51:42.081Z,89.27
2022-12-23T06:54:12.796Z,89.17
2022-12-23T06:56:40.691Z,89.13
2022-12-23T06:59:08.581Z,89.36
2022-12-23T07:01:36.973Z,89.04
2022-12-23T07:04:05.475Z,88.96
2022-12-23T07:06:33.252Z,89.01
2022-12-23T07:09:01.087Z,88.93
2022-12-23T07:11:30.209Z,88.83
2022-12-23T07:13:59.468Z,88.87
2022-12-23T07:16:27.291Z,88.71
2022-12-23T07:18:55.124Z,88.69
2022-12-23T07:21:28.954Z,88.29
2022-12-23T07:23:57.506Z,87.96
2022-12-23T07:26:25.266Z,87.87
2022-12-23T07:28:54.531Z,87.83
2022-12-23T07:31:22.427Z,88.01
2022-12-23T07:33:50.322Z,87.93
2022-12-23T07:36:18.103Z,88.13
2022-12-23T07:38:45.804Z,88.26
2022-12-23T07:41:13.492Z,88.17
2022-12-23T07:43:41.162Z,88.28
2022-12-23T07:46:10.978Z,87.99
2022-12-23T07:48:40.245Z,88.12
2022-12-23T07:51:08.207Z,88.11
2022-12-23T07:53:36.330Z,87.87
2022-12-23T07:56:04.025Z,87.99
2022-12-23T07:58:31.730Z,87.73
2022-12-23T08:01:03.267Z,87.42
2022-12-23T08:03:32.913Z,87.59
2022-12-23T08:06:02.414Z,87.78
2022-12-23T08:08:30.416Z,87.53
2022-12-23T08:11:00.323Z,87.57
2022-12-23T08:13:28.659Z,87.64
2022-12-23T08:15:57.574Z,87.71
2022-12-23T08:18:26.398Z,87.33
2022-12-23T08:21:01.116Z,87.29
2022-12-23T08:23:30.163Z,87.37
2022-12-23T08:26:02.388Z,87.32
2022-12-23T08:28:30.483Z,87.38
2022-12-23T08:31:04.924Z,87.15
2022-12-23T08:33:32.759Z,86.91
2022-12-23T08:36:01.963Z,87.12
2022-12-23T08:38:29.724Z,86.98
2022-12-23T08:40:57.806Z,87.02
2022-12-23T08:43:30.224Z,87.14
2022-12-23T08:46:01.458Z,86.87
2022-12-23T08:48:29.120Z,86.76
2022-12-23T08:50:56.974Z,86.93
2022-12-23T08:53:26.017Z,86.17
2022-12-23T08:55:53.702Z,86.15
2022-12-23T08:58:21.446Z,86.28
2022-12-23T09:00:49.164Z,85.92
2022-12-23T09:03:16.900Z,85.39
2022-12-23T09:05:44.654Z,85.46
2022-12-23T09:08:12.429Z,85.29
2022-12-23T09:10:43.593Z,85.03
2022-12-23T09:13:16.289Z,85.28
2022-12-23T09:15:47.747Z,85.03
2022-12-23T09:18:15.463Z,84.73
2022-12-23T09:20:43.172Z,84.62
2022-12-23T09:23:10.954Z,84.59
2022-12-23T09:25:38.733Z,84.11
2022-12-23T09:28:08.610Z,84.18
2022-12-23T09:30:36.328Z,84.15
2022-12-23T09:33:04.052Z,83.08
2022-12-23T09:35:31.727Z,82.99
2022-12-23T09:37:59.422Z,82.50
2022-12-23T09:40:30.330Z,82.50
2022-12-23T09:43:13.125Z,82.25
2022-12-23T09:45:56.813Z,82.49
2022-12-23T09:48:27.966Z,82.43
2022-12-23T09:50:56.642Z,82.06
2022-12-23T09:53:33.835Z,82.27
2022-12-23T09:56:08.430Z,82.39
2022-12-23T09:58:43.725Z,82.17
2022-12-23T10:01:19.439Z,81.96
2022-12-23T10:04:10.817Z,82.35
2022-12-23T10:06:41.089Z,82.47
2022-12-23T10:09:11.122Z,82.32
2022-12-23T10:11:43.248Z,81.28
2022-12-23T10:14:18.114Z,80.81
2022-12-23T10:16:53.124Z,81.24
2022-12-23T10:19:25.785Z,81.18
2022-12-23T10:21:56.955Z,80.64
2022-12-23T10:24:27.614Z,80.88
2022-12-23T10:26:57.143Z,80.83
2022-12-23T10:29:26.529Z,80.89
2022-12-23T10:32:07.501Z,80.08
2022-12-23T10:34:45.698Z,80.30
2022-12-23T10:37:21.400Z,79.39
2022-12-23T10:40:02.043Z,79.84
2022-12-23T10:42:37.791Z,79.94
2022-12-23T10:45:21.473Z,79.96
2022-12-23T10:48:06.046Z,79.29
2022-12-23T10:50:50.480Z,79.93
2022-12-23T10:53:28.535Z,80.23
2022-12-23T10:55:58.229Z,80.24
2022-12-23T10:58:27.358Z,80.09
2022-12-23T11:00:57.078Z,80.32
2022-12-23T11:03:30.010Z,80.32
2022-12-23T11:05:59.118Z,80.76
2022-12-23T11:08:30.255Z,80.57
2022-12-23T11:11:01.193Z,80.78
2022-12-23T11:13:36.666Z,80.63
2022-12-23T11:16:16.277Z,80.68
2022-12-23T11:18:57.279Z,80.34
2022-12-23T11:21:25.576Z,80.96
2022-12-23T11:24:16.268Z,80.76
2022-12-23T11:26:44.681Z,81.00
2022-12-23T11:29:17.016Z,81.23
2022-12-23T11:31:45.330Z,81.10
2022-12-23T11:34:19.613Z,80.69
2022-12-23T11:36:56.571Z,80.89
2022-12-23T11:39:30.121Z,80.84
2022-12-23T11:42:06.109Z,80.74
2022-12-23T11:44:36.993Z,80.33
2022-12-23T11:47:21.304Z,79.94
2022-12-23T11:49:52.288Z,79.84
2022-12-23T11:52:21.965Z,80.03
2022-12-23T11:54:55.526Z,80.40
2022-12-23T11:57:29.135Z,80.53
2022-12-23T12:00:00.479Z,80.86
2022-12-23T12:02:36.260Z,80.99
2022-12-23T12:05:09.846Z,80.88
2022-12-23T12:07:37.765Z,81.49
2022-12-23T12:10:06.947Z,80.97
2022-12-23T12:12:34.689Z,81.04
2022-12-23T12:15:02.450Z,81.22
2022-12-23T12:17:37.382Z,81.31
2022-12-23T12:20:13.447Z,81.40
2022-12-23T12:22:46.120Z,81.61
2022-12-23T12:25:19.620Z,81.94
2022-12-23T12:27:55.093Z,81.88
2022-12-23T12:30:23.353Z,81.99
2022-12-23T12:33:00.801Z,81.74
2022-12-23T12:35:38.733Z,82.03
2022-12-23T12:38:14.396Z,82.03
2022-12-23T12:40:44.483Z,81.98
2022-12-23T12:43:21.599Z,81.91
2022-12-23T12:45:53.780Z,82.09
2022-12-23T12:48:40.251Z,82.29
2022-12-23T12:51:19.704Z,82.46
2022-12-23T12:54:04.942Z,82.56
2022-12-23T12:56:36.307Z,82.77
2022-12-23T12:59:04.904Z,83.13
2022-12-23T13:01:46.887Z,83.27
2022-12-23T13:04:43.687Z,83.72
2022-12-23T13:07:25.090Z,83.47
2022-12-23T13:10:00.966Z,83.86
2022-12-23T13:12:43.344Z,84.11
2022-12-23T13:15:20.494Z,84.10
2022-12-23T13:18:03.672Z,84.20
2022-12-23T13:20:37.393Z,84.55
2022-12-23T13:23:41.742Z,84.59
2022-12-23T13:26:10.788Z,84.55
2022-12-23T13:28:48.771Z,84.82
2022-12-23T13:31:26.412Z,85.12
2022-12-23T13:34:04.231Z,85.16
2022-12-23T13:36:44.207Z,84.81
2022-12-23T13:39:30.999Z,84.66
2022-12-23T13:42:05.518Z,84.89
2022-12-23T13:44:35.824Z,84.99
2022-12-23T13:47:12.504Z,85.12
2022-12-23T13:49:54.004Z,85.02
2022-12-23T13:52:30.292Z,85.13
2022-12-23T13:55:06.828Z,85.30
2022-12-23T13:57:47.342Z,85.41
2022-12-23T14:00:26.959Z,85.25
2022-12-23T14:03:20.683Z,85.28
2022-12-23T14:05:50.525Z,85.25
2022-12-23T14:08:25.686Z,85.38
2022-12-23T14:10:58.500Z,85.42
2022-12-23T14:13:31.046Z,85.67
2022-12-23T14:16:14.834Z,85.59
2022-12-23T14:19:10.223Z,85.75
2022-12-23T14:21:48.151Z,85.59
2022-12-23T14:24:36.778Z,85.84
2022-12-23T14:27:43.315Z,85.95
2022-12-23T14:30:16.205Z,86.16
2022-12-23T14:32:48.703Z,86.18
2022-12-23T14:35:23.748Z,86.26
2022-12-23T14:38:23.447Z,86.41
2022-12-23T14:40:58.566Z,86.45
2022-12-23T14:43:34.656Z,86.64
2022-12-23T14:46:04.877Z,86.38
2022-12-23T14:49:38.202Z,86.86
2022-12-23T14:52:42.637Z,87.04
2022-12-23T14:55:40.438Z,86.96
2022-12-23T14:58:20.536Z,87.20
2022-12-23T15:00:53.745Z,87.49
2022-12-23T15:03:21.626Z,87.20
2022-12-23T15:05:50.946Z,87.47
2022-12-23T15:08:31.448Z,87.73
2022-12-23T15:11:00.373Z,87.83
2022-12-23T15:13:29.671Z,87.84
2022-12-23T15:16:01.729Z,87.91
2022-12-23T15:18:29.929Z,87.81
2022-12-23T15:21:03.231Z,88.02
2022-12-23T15:23:31.168Z,87.87
2022-12-23T15:26:00.955Z,88.11
2022-12-23T15:28:36.925Z,87.99
2022-12-23T15:31:07.574Z,88.01
2022-12-23T15:34:02.471Z,87.98
2022-12-23T15:36:30.695Z,88.00
2022-12-23T15:39:00.571Z,88.22
2022-12-23T15:41:28.836Z,88.25
2022-12-23T15:44:01.906Z,88.40
2022-12-23T15:46:32.842Z,88.45
2022-12-23T15:49:00.625Z,88.38
2022-12-23T15:51:58.335Z,88.65
2022-12-23T15:54:23.863Z,88.52
2022-12-23T15:56:54.362Z,88.68
2022-12-23T15:59:28.575Z,88.71
2022-12-23T16:01:57.760Z,88.66
2022-12-23T16:04:28.229Z,88.71
2022-12-23T16:06:57.304Z,88.83
2022-12-23T16:09:32.708Z,88.71
2022-12-23T16:12:02.131Z,88.68
2022-12-23T16:14:36.302Z,88.61
2022-12-23T16:17:18.258Z,88.93
2022-12-23T16:19:47.302Z,88.68
2022-12-23T16:22:25.482Z,88.72
2022-12-23T16:24:59.909Z,88.91
2022-12-23T16:27:35.696Z,88.86
2022-12-23T16:30:11.464Z,88.98
2022-12-23T16:32:52.319Z,89.02
2022-12-23T16:35:34.364Z,89.08
2022-12-23T16:38:15.473Z,89.15
2022-12-23T16:40:44.406Z,89.16
2022-12-23T16:43:12.559Z,89.04
2022-12-23T16:45:41.215Z,89.16
2022-12-23T16:48:17.970Z,89.19
2022-12-23T16:50:46.973Z,89.06
2022-12-23T16:53:15.559Z,89.30
2022-12-23T16:55:51.160Z,89.40
2022-12-23T16:58:20.453Z,89.40
2022-12-23T17:00:48.453Z,89.46
2022-12-23T17:03:22.248Z,89.50
2022-12-23T17:05:50.253Z,89.48
2022-12-23T17:08:18.138Z,89.52
2022-12-23T17:10:46.368Z,89.58
2022-12-23T17:13:17.296Z,89.53
2022-12-23T17:15:45.448Z,89.40
2022-12-23T17:18:14.926Z,89.33
2022-12-23T17:20:45.888Z,89.49
2022-12-23T17:23:27.186Z,89.71
2022-12-23T17:25:55.080Z,89.45
2022-12-23T17:28:23.155Z,89.13
2022-12-23T17:30:54.962Z,89.43
2022-12-23T17:33:25.033Z,89.44
2022-12-23T17:35:55.681Z,89.14
2022-12-23T17:38:23.686Z,89.36
2022-12-23T17:40:52.079Z,89.31
2022-12-23T17:43:19.827Z,89.31
2022-12-23T17:45:48.176Z,89.22
2022-12-23T17:48:20.838Z,89.28
2022-12-23T17:50:50.997Z,89.09
2022-12-23T17:53:21.119Z,89.49
2022-12-23T17:55:48.780Z,89.34
2022-12-23T17:58:16.423Z,89.35
2022-12-23T18:00:44.186Z,89.45
2022-12-23T18:03:23.123Z,89.47
2022-12-23T18:05:55.638Z,89.25
2022-12-23T18:08:31.049Z,89.42
2022-12-23T18:10:59.391Z,89.33
2022-12-23T18:13:27.130Z,89.47
2022-12-23T18:15:54.862Z,89.15
2022-12-23T18:18:32.123Z,89.25
2022-12-23T18:21:01.561Z,89.20
2022-12-23T18:23:32.874Z,88.97
2022-12-23T18:26:01.404Z,89.11
2022-12-23T18:28:29.158Z,89.09
2022-12-23T18:30:58.002Z,88.95
2022-12-23T18:33:28.949Z,88.91
2022-12-23T18:35:57.167Z,88.91
2022-12-23T18:38:24.918Z,89.01
2022-12-23T18:40:56.678Z,88.83
2022-12-23T18:43:26.479Z,88.85
2022-12-23T18:45:54.535Z,88.80
2022-12-23T18:48:22.486Z,88.89
2022-12-23T18:50:50.230Z,88.95
2022-12-23T18:53:23.716Z,88.84
2022-12-23T18:55:54.407Z,88.81
2022-12-23T18:58:23.354Z,88.71
2022-12-23T19:00:52.545Z,88.74
2022-12-23T19:03:23.778Z,88.47
2022-12-23T19:05:52.872Z,88.53
2022-12-23T19:08:26.156Z,88.55
2022-12-23T19:10:56.776Z,88.62
2022-12-23T19:13:24.554Z,88.10
2022-12-23T19:15:52.815Z,88.50
2022-12-23T19:18:22.667Z,88.40
2022-12-23T19:20:50.816Z,88.30
2022-12-23T19:23:18.595Z,88.35
2022-12-23T19:25:54.384Z,88.13
2022-12-23T19:28:24.896Z,88.30
2022-12-23T19:30:52.858Z,88.03
2022-12-23T19:33:20.625Z,88.06
2022-12-23T19:35:48.372Z,88.13
2022-12-23T19:38:16.089Z,88.01
2022-12-23T19:40:43.866Z,88.08
2022-12-23T19:43:11.589Z,88.25
2022-12-23T19:45:41.049Z,88.01
2022-12-23T19:48:09.632Z,88.13
2022-12-23T19:50:37.301Z,88.00
2022-12-23T19:53:05.017Z,88.12
2022-12-23T19:55:32.747Z,88.01
2022-12-23T19:58:00.456Z,88.32
2022-12-23T20:00:28.141Z,88.10
2022-12-23T20:02:59.123Z,88.32
2022-12-23T20:05:27.377Z,88.47
2022-12-23T20:07:55.096Z,88.39
2022-12-23T20:10:22.768Z,88.44
2022-12-23T20:12:50.546Z,88.70
2022-12-23T20:15:18.376Z,88.81
2022-12-23T20:17:46.029Z,88.75
2022-12-23T20:20:16.331Z,88.80
2022-12-23T20:22:44.007Z,88.85
2022-12-23T20:25:11.774Z,88.90
2022-12-23T20:27:39.698Z,88.76
2022-12-23T20:30:08.879Z,88.93
2022-12-23T20:32:36.510Z,88.84
2022-12-23T20:35:04.498Z,88.76
2022-12-23T20:37:33.500Z,88.82
2022-12-23T20:40:01.183Z,88.97
2022-12-23T20:42:28.874Z,88.87
2022-12-23T20:44:56.613Z,88.97
2022-12-23T20:47:24.302Z,88.94
2022-12-23T20:49:51.985Z,89.00
2022-12-23T20:52:19.739Z,89.04
2022-12-23T20:54:48.760Z,88.85
2022-12-23T20:57:16.437Z,89.05
2022-12-23T20:59:44.283Z,88.98
2022-12-23T21:02:13.611Z,89.19
2022-12-23T21:04:41.610Z,89.38
2022-12-23T21:07:09.637Z,89.32
2022-12-23T21:09:37.323Z,89.25
2022-12-23T21:12:06.795Z,89.13
2022-12-23T21:14:34.729Z,89.02
2022-12-23T21:17:02.435Z,89.22
2022-12-23T21:19:30.298Z,89.08
2022-12-23T21:21:58.234Z,89.31
2022-12-23T21:24:26.058Z,89.16
2022-12-23T21:26:56.800Z,89.13
2022-12-23T21:29:26.722Z,89.22
2022-12-23T21:31:55.198Z,89.47
2022-12-23T21:34:23.332Z,89.38
2022-12-23T21:36:51.070Z,89.49
2022-12-23T21:39:18.838Z,89.63
2022-12-23T21:41:49.026Z,89.63
2022-12-23T21:44:16.772Z,89.58
2022-12-23T21:46:45.882Z,89.76
2022-12-23T21:49:14.167Z,89.77
2022-12-23T21:51:42.310Z,89.95
2022-12-23T21:54:10.923Z,90.15
2022-12-23T21:56:39.824Z,89.84
2022-12-23T21:59:09.656Z,90.09
2022-12-23T22:01:37.395Z,90.01
2022-12-23T22:04:07.011Z,90.31
2022-12-23T22:06:38.858Z,90.23
2022-12-23T22:09:08.182Z,90.33
2022-12-23T22:11:37.619Z,90.26
2022-12-23T22:14:07.737Z,90.23
2022-12-23T22:16:36.572Z,90.31
2022-12-23T22:19:06.949Z,90.34
2022-12-23T22:21:35.630Z,90.15
2022-12-23T22:24:04.489Z,90.34
2022-12-23T22:26:33.467Z,90.38
2022-12-23T22:29:05.442Z,90.49
2022-12-23T22:31:37.287Z,90.37
2022-12-23T22:34:07.433Z,90.13
2022-12-23T22:36:35.479Z,90.21
2022-12-23T22:39:04.197Z,90.13
2022-12-23T22:41:32.221Z,90.02
2022-12-23T22:44:00.510Z,89.97
2022-12-23T22:46:29.158Z,89.85
2022-12-23T22:48:58.649Z,89.83
2022-12-23T22:51:30.274Z,89.77
2022-12-23T22:53:58.747Z,90.07
2022-12-23T22:56:27.199Z,90.08
2022-12-23T22:58:55.210Z,90.14
2022-12-23T23:01:26.157Z,90.07
2022-12-23T23:03:57.692Z,90.29
2022-12-23T23:06:27.808Z,90.18
2022-12-23T23:08:56.330Z,90.02
2022-12-23T23:11:25.347Z,89.91
2022-12-23T23:13:53.568Z,90.33
2022-12-23T23:16:21.680Z,89.99
2022-12-23T23:18:49.703Z,90.06
2022-12-23T23:21:17.746Z,89.95
2022-12-23T23:23:47.009Z,89.79
2022-12-23T23:26:15.453Z,89.69
2022-12-23T23:28:43.883Z,89.81
2022-12-23T23:34:00.845Z,89.42
2022-12-23T23:36:28.673Z,89.22
2022-12-23T23:38:57.848Z,89.05
2022-12-23T23:41:25.597Z,89.12
2022-12-23T23:43:53.407Z,89.06
2022-12-23T23:46:21.164Z,89.25
2022-12-23T23:48:48.972Z,89.23
2022-12-23T23:51:16.716Z,89.13
2022-12-23T23:53:44.384Z,89.25
2022-12-23T23:56:13.408Z,89.18
2022-12-23T23:58:41.336Z,88.88
